createdAt,value
2019-03-05T00:00:39.856Z,90.38
2019-03-05T00:01:39.838Z,90.57
2019-03-05T00:02:39.817Z,91.05
2019-03-05T00:03:39.800Z,90.86
2019-03-05T00:04:39.779Z,90.57
2019-03-05T00:05:39.760Z,90.62
2019-03-05T00:06:39.740Z,90.67
2019-03-05T00:07:39.715Z,90.81
2019-03-05T00:08:39.703Z,90.14
2019-03-05T00:09:39.682Z,90.62
2019-03-05T00:10:39.666Z,90.57
2019-03-05T00:11:39.645Z,90.43
2019-03-05T00:12:39.624Z,90.38
2019-03-05T00:13:39.608Z,90.19
2019-03-05T00:14:39.591Z,90.48
2019-03-05T00:15:39.569Z,90.57
2019-03-05T00:16:39.546Z,90.43
2019-03-05T00:17:39.531Z,90.14
2019-03-05T00:18:39.510Z,89.81
2019-03-05T00:19:39.493Z,89.95
2019-03-05T00:20:39.474Z,89.81
2019-03-05T00:21:39.453Z,89.81
2019-03-05T00:22:39.434Z,90.19
2019-03-05T00:23:39.408Z,90.10
2019-03-05T00:24:39.403Z,90.10
2019-03-05T00:25:39.376Z,90.29
2019-03-05T00:26:39.358Z,90.19
2019-03-05T00:27:39.343Z,90.29
2019-03-05T00:28:39.318Z,90.10
2019-03-05T00:29:39.300Z,90.19
2019-03-05T00:30:39.280Z,90.19
2019-03-05T00:31:39.263Z,90.29
2019-03-05T00:32:39.244Z,90.38
2019-03-05T00:33:39.224Z,90.29
2019-03-05T00:34:39.205Z,89.81
2019-03-05T00:35:39.187Z,90.00
2019-03-05T00:36:39.170Z,90.00
2019-03-05T00:37:39.148Z,90.00
2019-03-05T00:38:39.127Z,90.00
2019-03-05T00:39:39.114Z,90.19
2019-03-05T00:40:39.091Z,90.29
2019-03-05T00:41:39.071Z,90.19
2019-03-05T00:42:39.053Z,89.72
2019-03-05T00:43:39.038Z,89.81
2019-03-05T00:44:39.012Z,90.00
2019-03-05T00:45:38.996Z,89.53
2019-03-05T00:46:38.975Z,89.34
2019-03-05T00:47:38.956Z,89.62
2019-03-05T00:48:38.940Z,89.72
2019-03-05T00:49:38.917Z,89.72
2019-03-05T00:50:38.899Z,89.06
2019-03-05T00:51:38.891Z,88.77
2019-03-05T00:52:38.860Z,88.58
2019-03-05T00:53:38.841Z,88.48
2019-03-05T00:54:38.822Z,88.20
2019-03-05T00:55:38.805Z,88.10
2019-03-05T00:56:38.783Z,87.92
2019-03-05T00:57:38.763Z,88.10
2019-03-05T00:58:38.745Z,88.10
2019-03-05T00:59:38.727Z,88.48
2019-03-05T01:00:38.707Z,88.48
2019-03-05T01:01:38.688Z,88.01
2019-03-05T01:02:38.669Z,87.92
2019-03-05T01:03:38.650Z,87.96
2019-03-05T01:04:38.632Z,88.06
2019-03-05T01:05:38.693Z,88.01
2019-03-05T01:06:38.592Z,88.15
2019-03-05T01:07:38.575Z,87.68
2019-03-05T01:08:38.553Z,87.49
2019-03-05T01:09:38.533Z,87.68
2019-03-05T01:10:38.516Z,86.91
2019-03-05T01:11:38.498Z,87.20
2019-03-05T01:12:38.476Z,87.11
2019-03-05T01:13:38.458Z,87.49
2019-03-05T01:14:38.439Z,87.39
2019-03-05T01:15:38.421Z,87.58
2019-03-05T01:16:38.398Z,87.30
2019-03-05T01:17:38.383Z,87.58
2019-03-05T01:18:38.368Z,87.30
2019-03-05T01:19:38.343Z,87.39
2019-03-05T01:20:38.323Z,87.49
2019-03-05T01:21:38.305Z,87.39
2019-03-05T01:22:38.286Z,87.30
2019-03-05T01:23:38.266Z,87.49
2019-03-05T01:24:38.245Z,87.01
2019-03-05T01:25:38.226Z,87.20
2019-03-05T01:26:38.210Z,87.11
2019-03-05T01:27:38.189Z,87.39
2019-03-05T01:28:38.174Z,87.11
2019-03-05T01:29:38.152Z,87.01
2019-03-05T01:30:38.135Z,86.63
2019-03-05T01:31:38.113Z,86.54
2019-03-05T01:32:38.096Z,86.82
2019-03-05T01:33:38.072Z,86.72
2019-03-05T01:34:38.058Z,86.82
2019-03-05T01:35:38.037Z,86.44
2019-03-05T01:36:38.017Z,86.63
2019-03-05T01:37:37.999Z,86.44
2019-03-05T01:38:37.991Z,86.44
2019-03-05T01:39:37.961Z,86.35
2019-03-05T01:40:37.942Z,86.25
2019-03-05T01:41:37.923Z,86.35
2019-03-05T01:42:37.903Z,87.01
2019-03-05T01:43:37.889Z,86.16
2019-03-05T01:44:37.868Z,86.44
2019-03-05T01:45:37.847Z,86.44
2019-03-05T01:46:37.830Z,86.25
2019-03-05T01:47:37.807Z,86.35
2019-03-05T01:48:37.792Z,85.68
2019-03-05T01:49:37.770Z,85.30
2019-03-05T01:50:37.751Z,85.49
2019-03-05T01:51:37.731Z,86.16
2019-03-05T01:52:37.710Z,85.97
2019-03-05T01:53:37.696Z,86.07
2019-03-05T01:54:37.676Z,85.40
2019-03-05T01:55:37.654Z,85.78
2019-03-05T01:56:37.640Z,85.49
2019-03-05T01:57:37.618Z,85.87
2019-03-05T01:58:37.595Z,85.68
2019-03-05T01:59:37.576Z,85.78
2019-03-05T02:00:37.558Z,85.68
2019-03-05T02:01:37.540Z,85.02
2019-03-05T02:02:37.521Z,85.21
2019-03-05T02:03:37.502Z,85.21
2019-03-05T02:04:37.489Z,85.11
2019-03-05T02:05:37.463Z,85.21
2019-03-05T02:06:37.442Z,85.30
2019-03-05T02:07:37.425Z,85.02
2019-03-05T02:08:37.407Z,85.17
2019-03-05T02:09:37.388Z,85.21
2019-03-05T02:10:37.367Z,85.02
2019-03-05T02:11:37.351Z,85.21
2019-03-05T02:12:37.330Z,84.55
2019-03-05T02:13:37.314Z,84.83
2019-03-05T02:14:37.290Z,84.74
2019-03-05T02:15:37.271Z,84.55
2019-03-05T02:16:37.256Z,84.64
2019-03-05T02:17:37.234Z,84.74
2019-03-05T02:18:37.217Z,84.64
2019-03-05T02:19:37.194Z,84.07
2019-03-05T02:20:37.183Z,84.74
2019-03-05T02:21:37.163Z,84.07
2019-03-05T02:22:37.140Z,83.78
2019-03-05T02:23:37.119Z,83.40
2019-03-05T02:24:37.103Z,83.50
2019-03-05T02:25:37.083Z,83.78
2019-03-05T02:26:37.062Z,83.78
2019-03-05T02:27:37.043Z,83.69
2019-03-05T02:28:37.023Z,83.78
2019-03-05T02:29:37.003Z,84.26
2019-03-05T02:30:36.985Z,83.88
2019-03-05T02:31:36.966Z,83.88
2019-03-05T02:32:36.949Z,83.88
2019-03-05T02:33:36.927Z,83.78
2019-03-05T02:34:36.910Z,83.97
2019-03-05T02:35:36.889Z,83.88
2019-03-05T02:36:36.872Z,83.40
2019-03-05T02:37:36.852Z,83.31
2019-03-05T02:38:36.836Z,83.78
2019-03-05T02:39:36.829Z,83.97
2019-03-05T02:40:36.789Z,83.12
2019-03-05T02:41:36.775Z,83.40
2019-03-05T02:42:36.755Z,83.50
2019-03-05T02:43:36.734Z,83.31
2019-03-05T02:44:36.718Z,83.31
2019-03-05T02:45:36.700Z,83.50
2019-03-05T02:46:36.679Z,83.31
2019-03-05T02:47:36.662Z,83.69
2019-03-05T02:48:36.641Z,83.69
2019-03-05T02:49:36.630Z,83.22
2019-03-05T02:50:36.605Z,83.12
2019-03-05T02:51:36.582Z,83.59
2019-03-05T02:52:36.565Z,83.22
2019-03-05T02:53:36.547Z,83.12
2019-03-05T02:54:36.530Z,83.22
2019-03-05T02:55:36.507Z,83.40
2019-03-05T02:56:36.489Z,82.74
2019-03-05T02:57:36.473Z,83.03
2019-03-05T02:58:36.450Z,82.84
2019-03-05T02:59:36.434Z,83.12
2019-03-05T03:00:36.414Z,83.22
2019-03-05T03:01:36.407Z,83.31
2019-03-05T03:02:36.375Z,83.40
2019-03-05T03:03:36.362Z,83.40
2019-03-05T03:04:36.336Z,83.31
2019-03-05T03:05:36.318Z,83.50
2019-03-05T03:06:36.299Z,83.40
2019-03-05T03:07:36.282Z,83.36
2019-03-05T03:08:36.271Z,83.17
2019-03-05T03:09:36.241Z,83.50
2019-03-05T03:10:36.233Z,83.36
2019-03-05T03:11:36.200Z,83.50
2019-03-05T03:12:36.186Z,83.46
2019-03-05T03:13:36.163Z,83.46
2019-03-05T03:14:36.144Z,82.98
2019-03-05T03:15:36.131Z,83.27
2019-03-05T03:16:36.105Z,82.98
2019-03-05T03:17:36.090Z,83.17
2019-03-05T03:18:36.068Z,83.27
2019-03-05T03:19:36.049Z,83.27
2019-03-05T03:20:36.037Z,83.36
2019-03-05T03:21:36.011Z,83.36
2019-03-05T03:22:35.991Z,83.36
2019-03-05T03:23:35.971Z,83.36
2019-03-05T03:24:35.957Z,83.36
2019-03-05T03:25:35.937Z,82.89
2019-03-05T03:26:35.915Z,83.17
2019-03-05T03:27:35.895Z,83.36
2019-03-05T03:28:35.879Z,83.46
2019-03-05T03:29:35.859Z,82.98
2019-03-05T03:30:35.848Z,82.89
2019-03-05T03:31:35.819Z,82.51
2019-03-05T03:32:35.802Z,82.51
2019-03-05T03:33:35.789Z,82.51
2019-03-05T03:34:35.796Z,82.70
2019-03-05T03:35:35.741Z,82.60
2019-03-05T03:36:35.723Z,82.89
2019-03-05T03:37:35.757Z,82.98
2019-03-05T03:38:35.724Z,82.98
2019-03-05T03:39:35.663Z,82.79
2019-03-05T03:40:35.657Z,83.17
2019-03-05T03:41:35.627Z,83.36
2019-03-05T03:42:35.608Z,83.36
2019-03-05T03:43:35.590Z,83.27
2019-03-05T03:44:35.569Z,83.46
2019-03-05T03:45:35.552Z,83.46
2019-03-05T03:46:35.534Z,83.17
2019-03-05T03:47:35.514Z,83.08
2019-03-05T03:48:35.493Z,82.98
2019-03-05T03:49:35.475Z,82.60
2019-03-05T03:50:35.457Z,82.89
2019-03-05T03:51:35.435Z,82.89
2019-03-05T03:52:35.415Z,82.89
2019-03-05T03:53:35.407Z,82.70
2019-03-05T03:54:35.376Z,82.98
2019-03-05T03:55:35.357Z,82.51
2019-03-05T03:56:35.344Z,82.51
2019-03-05T03:57:35.335Z,82.70
2019-03-05T03:58:35.309Z,82.70
2019-03-05T03:59:35.279Z,83.08
2019-03-05T04:00:35.263Z,82.79
2019-03-05T04:01:35.248Z,82.98
2019-03-05T04:02:35.223Z,83.08
2019-03-05T04:03:35.219Z,82.89
2019-03-05T04:04:35.187Z,82.98
2019-03-05T04:05:35.166Z,82.60
2019-03-05T04:06:35.147Z,82.98
2019-03-05T04:07:35.127Z,82.98
2019-03-05T04:08:35.109Z,82.51
2019-03-05T04:09:35.093Z,82.51
2019-03-05T04:10:35.069Z,82.79
2019-03-05T04:11:35.052Z,82.42
2019-03-05T04:12:35.033Z,82.42
2019-03-05T04:13:35.027Z,82.84
2019-03-05T04:14:34.995Z,82.79
2019-03-05T04:15:34.978Z,82.79
2019-03-05T04:16:34.957Z,82.60
2019-03-05T04:17:34.937Z,82.65
2019-03-05T04:18:34.930Z,82.70
2019-03-05T04:19:34.912Z,82.70
2019-03-05T04:20:34.882Z,82.70
2019-03-05T04:21:34.867Z,82.51
2019-03-05T04:22:34.839Z,83.08
2019-03-05T04:23:34.824Z,82.98
2019-03-05T04:24:34.802Z,82.60
2019-03-05T04:25:34.787Z,82.98
2019-03-05T04:26:34.763Z,82.70
2019-03-05T04:27:34.744Z,82.98
2019-03-05T04:28:34.727Z,82.89
2019-03-05T04:29:34.720Z,83.08
2019-03-05T04:30:34.687Z,82.89
2019-03-05T04:31:34.669Z,82.89
2019-03-05T04:32:34.667Z,82.89
2019-03-05T04:33:34.633Z,82.89
2019-03-05T04:36:14.967Z,82.98
2019-03-05T04:37:14.931Z,82.98
2019-03-05T04:39:07.815Z,82.89
2019-03-05T04:40:07.777Z,82.89
2019-03-05T04:42:00.647Z,82.79
2019-03-05T04:43:00.603Z,82.89
2019-03-05T04:44:53.468Z,82.79
2019-03-05T04:45:53.435Z,82.89
2019-03-05T04:47:54.440Z,82.79
2019-03-05T04:48:46.293Z,82.89
2019-03-05T04:50:39.136Z,82.79
2019-03-05T04:51:39.100Z,82.70
2019-03-05T04:53:31.959Z,82.70
2019-03-05T04:54:31.932Z,83.17
2019-03-05T04:55:31.911Z,82.89
2019-03-05T04:56:31.892Z,83.36
2019-03-05T04:57:31.869Z,83.27
2019-03-05T04:58:31.852Z,83.36
2019-03-05T04:59:31.833Z,83.27
2019-03-05T05:00:31.824Z,83.27
2019-03-05T05:01:31.795Z,83.17
2019-03-05T05:02:31.775Z,83.46
2019-03-05T05:03:31.756Z,83.42
2019-03-05T05:04:31.737Z,83.32
2019-03-05T05:05:31.723Z,83.36
2019-03-05T05:06:31.700Z,83.70
2019-03-05T05:07:31.678Z,83.51
2019-03-05T05:08:31.659Z,83.80
2019-03-05T05:09:31.639Z,83.51
2019-03-05T05:10:31.621Z,84.12
2019-03-05T05:11:31.601Z,83.70
2019-03-05T05:12:31.581Z,83.94
2019-03-05T05:13:31.563Z,84.08
2019-03-05T05:14:31.547Z,83.80
2019-03-05T05:15:31.528Z,84.08
2019-03-05T05:16:31.509Z,84.03
2019-03-05T05:17:31.484Z,84.12
2019-03-05T05:18:31.469Z,83.94
2019-03-05T05:19:31.446Z,83.94
2019-03-05T05:20:31.426Z,83.94
2019-03-05T05:21:31.408Z,84.03
2019-03-05T05:22:31.390Z,84.03
2019-03-05T05:23:31.368Z,83.94
2019-03-05T05:24:31.353Z,84.22
2019-03-05T05:25:31.331Z,84.12
2019-03-05T05:26:31.338Z,84.03
2019-03-05T05:27:31.290Z,83.94
2019-03-05T05:28:31.272Z,84.03
2019-03-05T05:29:31.252Z,83.74
2019-03-05T05:30:31.234Z,83.84
2019-03-05T05:31:31.221Z,84.03
2019-03-05T05:32:31.197Z,84.03
2019-03-05T05:33:31.176Z,84.03
2019-03-05T05:34:31.158Z,83.65
2019-03-05T05:35:31.144Z,83.84
2019-03-05T05:36:31.117Z,83.84
2019-03-05T05:37:31.111Z,83.74
2019-03-05T05:38:31.080Z,83.74
2019-03-05T05:39:31.060Z,83.84
2019-03-05T05:40:31.048Z,83.84
2019-03-05T05:41:31.022Z,84.03
2019-03-05T05:42:31.003Z,83.74
2019-03-05T05:43:30.983Z,83.94
2019-03-05T05:44:30.965Z,84.31
2019-03-05T05:45:30.955Z,84.12
2019-03-05T05:46:30.928Z,84.41
2019-03-05T05:47:30.907Z,84.31
2019-03-05T05:48:30.887Z,84.78
2019-03-05T05:49:30.872Z,84.41
2019-03-05T05:50:30.850Z,84.69
2019-03-05T05:51:30.827Z,84.59
2019-03-05T05:52:30.809Z,84.88
2019-03-05T05:53:30.790Z,84.69
2019-03-05T05:54:30.773Z,84.88
2019-03-05T05:55:30.755Z,85.07
2019-03-05T05:56:30.732Z,85.17
2019-03-05T05:57:30.712Z,85.07
2019-03-05T05:58:30.693Z,85.17
2019-03-05T05:59:30.673Z,84.69
2019-03-05T06:00:30.654Z,85.07
2019-03-05T06:01:30.635Z,84.88
2019-03-05T06:02:30.616Z,84.98
2019-03-05T06:03:30.602Z,84.88
2019-03-05T06:04:30.576Z,84.78
2019-03-05T06:05:30.560Z,84.50
2019-03-05T06:06:30.541Z,84.69
2019-03-05T06:07:30.517Z,84.59
2019-03-05T06:08:30.496Z,84.59
2019-03-05T06:09:30.478Z,84.59
2019-03-05T06:10:30.461Z,84.69
2019-03-05T06:11:30.439Z,84.59
2019-03-05T06:12:30.424Z,84.69
2019-03-05T06:13:30.405Z,84.78
2019-03-05T06:14:30.388Z,84.69
2019-03-05T06:15:30.363Z,84.31
2019-03-05T06:16:30.343Z,84.41
2019-03-05T06:17:30.325Z,84.03
2019-03-05T06:18:30.301Z,84.31
2019-03-05T06:19:30.294Z,84.12
2019-03-05T06:20:30.269Z,83.84
2019-03-05T06:21:30.246Z,83.84
2019-03-05T06:22:30.228Z,84.12
2019-03-05T06:23:30.209Z,84.12
2019-03-05T06:24:30.194Z,83.84
2019-03-05T06:25:30.172Z,83.65
2019-03-05T06:26:30.152Z,84.12
2019-03-05T06:27:30.135Z,84.12
2019-03-05T06:28:30.111Z,83.94
2019-03-05T06:29:30.095Z,84.03
2019-03-05T06:30:30.074Z,84.12
2019-03-05T06:31:30.056Z,84.03
2019-03-05T06:32:30.035Z,84.03
2019-03-05T06:33:30.016Z,83.94
2019-03-05T06:34:29.996Z,84.31
2019-03-05T06:35:29.979Z,84.03
2019-03-05T06:36:29.957Z,84.03
2019-03-05T06:37:29.939Z,83.94
2019-03-05T06:38:29.920Z,84.22
2019-03-05T06:39:29.900Z,83.65
2019-03-05T06:40:29.879Z,83.84
2019-03-05T06:41:29.860Z,83.65
2019-03-05T06:42:29.842Z,83.27
2019-03-05T06:43:29.819Z,83.08
2019-03-05T06:44:29.802Z,83.17
2019-03-05T06:45:29.785Z,82.79
2019-03-05T06:46:29.764Z,82.89
2019-03-05T06:47:29.743Z,82.60
2019-03-05T06:48:29.736Z,82.79
2019-03-05T06:49:29.707Z,83.08
2019-03-05T06:50:29.688Z,83.17
2019-03-05T06:51:29.668Z,83.36
2019-03-05T06:52:29.652Z,83.46
2019-03-05T06:53:29.632Z,83.74
2019-03-05T06:54:29.610Z,83.55
2019-03-05T06:55:29.592Z,84.03
2019-03-05T06:56:29.571Z,84.22
2019-03-05T06:57:29.553Z,84.31
2019-03-05T06:58:29.532Z,84.59
2019-03-05T06:59:29.512Z,84.59
2019-03-05T07:00:29.494Z,84.41
2019-03-05T07:01:29.478Z,84.65
2019-03-05T07:02:29.455Z,84.84
2019-03-05T07:03:29.429Z,84.88
2019-03-05T07:04:29.415Z,84.94
2019-03-05T07:05:29.390Z,84.84
2019-03-05T07:06:29.399Z,84.65
2019-03-05T07:07:29.372Z,85.41
2019-03-05T07:08:29.339Z,85.41
2019-03-05T07:09:29.316Z,85.31
2019-03-05T07:10:29.299Z,85.69
2019-03-05T07:11:29.273Z,85.64
2019-03-05T07:12:29.262Z,85.69
2019-03-05T07:13:29.239Z,85.64
2019-03-05T07:14:29.222Z,85.74
2019-03-05T07:15:29.201Z,85.36
2019-03-05T07:16:29.197Z,85.17
2019-03-05T07:17:29.161Z,85.36
2019-03-05T07:18:29.144Z,85.17
2019-03-05T07:19:29.119Z,84.98
2019-03-05T07:20:29.120Z,84.88
2019-03-05T07:21:29.084Z,84.78
2019-03-05T07:22:29.089Z,84.50
2019-03-05T07:23:29.046Z,84.69
2019-03-05T07:24:29.028Z,84.41
2019-03-05T07:25:29.008Z,84.69
2019-03-05T07:26:29.014Z,84.50
2019-03-05T07:27:28.968Z,84.41
2019-03-05T07:28:28.959Z,84.69
2019-03-05T07:29:28.930Z,84.50
2019-03-05T07:30:28.911Z,84.69
2019-03-05T07:31:28.891Z,84.50
2019-03-05T07:32:28.871Z,84.22
2019-03-05T07:33:28.853Z,84.22
2019-03-05T07:34:28.833Z,84.12
2019-03-05T07:35:28.814Z,84.12
2019-03-05T07:36:28.793Z,83.55
2019-03-05T07:37:28.776Z,83.94
2019-03-05T07:38:28.759Z,83.36
2019-03-05T07:39:28.738Z,83.65
2019-03-05T07:40:28.716Z,83.27
2019-03-05T07:41:28.703Z,82.89
2019-03-05T07:42:28.678Z,83.17
2019-03-05T07:43:36.408Z,82.89
2019-03-05T07:44:28.641Z,82.65
2019-03-05T07:45:28.622Z,82.65
2019-03-05T07:46:28.606Z,82.84
2019-03-05T07:47:28.583Z,81.98
2019-03-05T07:48:29.723Z,82.08
2019-03-05T07:49:28.542Z,82.27
2019-03-05T07:50:28.525Z,82.08
2019-03-05T07:51:28.506Z,82.17
2019-03-05T07:52:28.561Z,81.88
2019-03-05T07:53:36.724Z,81.70
2019-03-05T07:55:22.055Z,80.94
2019-03-05T07:56:22.021Z,80.56
2019-03-05T07:58:14.895Z,80.84
2019-03-05T07:59:14.863Z,80.84
2019-03-05T08:01:07.722Z,81.04
2019-03-05T08:02:07.694Z,80.37
2019-03-05T08:04:00.560Z,80.08
2019-03-05T08:05:00.539Z,80.37
2019-03-05T08:06:54.370Z,79.14
2019-03-05T08:07:54.344Z,79.52
2019-03-05T08:09:47.234Z,79.46
2019-03-05T08:10:47.174Z,79.46
2019-03-05T08:12:40.047Z,79.17
2019-03-05T08:13:40.013Z,79.55
2019-03-05T08:15:32.872Z,79.17
2019-03-05T08:16:32.843Z,79.27
2019-03-05T08:18:26.212Z,79.17
2019-03-05T08:19:26.176Z,79.27
2019-03-05T08:21:19.035Z,79.08
2019-03-05T08:22:19.010Z,79.08
2019-03-05T08:24:11.879Z,78.32
2019-03-05T08:25:11.838Z,77.66
2019-03-05T08:26:11.824Z,77.56
2019-03-05T08:27:11.804Z,77.28
2019-03-05T08:28:11.787Z,76.42
2019-03-05T08:29:11.791Z,76.23
2019-03-05T08:30:14.680Z,75.85
2019-03-05T08:31:11.731Z,75.38
2019-03-05T08:32:11.922Z,75.76
2019-03-05T08:33:12.002Z,75.28
2019-03-05T08:34:11.676Z,75.28
2019-03-05T08:35:11.655Z,75.09
2019-03-05T08:36:11.653Z,75.38
2019-03-05T08:37:13.433Z,75.38
2019-03-05T08:38:11.601Z,75.57
2019-03-05T08:39:11.583Z,75.28
2019-03-05T08:40:11.565Z,75.28
2019-03-05T08:41:11.546Z,75.76
2019-03-05T08:42:11.527Z,75.76
2019-03-05T08:43:11.529Z,75.76
2019-03-05T08:44:11.491Z,74.81
2019-03-05T08:45:11.474Z,75.00
2019-03-05T08:46:11.457Z,75.09
2019-03-05T08:47:11.435Z,74.33
2019-03-05T08:48:11.416Z,74.18
2019-03-05T08:49:11.399Z,74.37
2019-03-05T08:50:11.378Z,74.47
2019-03-05T08:51:11.364Z,74.27
2019-03-05T08:52:11.347Z,74.37
2019-03-05T08:53:11.330Z,74.37
2019-03-05T08:54:11.309Z,74.27
2019-03-05T08:55:11.293Z,73.71
2019-03-05T08:56:11.269Z,73.80
2019-03-05T08:57:11.298Z,73.61
2019-03-05T08:58:11.233Z,73.61
2019-03-05T08:59:11.217Z,73.71
2019-03-05T09:00:11.211Z,73.80
2019-03-05T09:01:11.177Z,72.95
2019-03-05T09:02:11.175Z,73.00
2019-03-05T09:03:11.143Z,73.61
2019-03-05T09:04:11.126Z,73.52
2019-03-05T09:05:11.112Z,73.67
2019-03-05T09:06:11.089Z,73.76
2019-03-05T09:07:11.111Z,73.90
2019-03-05T09:08:11.050Z,72.63
2019-03-05T09:09:11.029Z,72.72
2019-03-05T09:10:11.007Z,72.53
2019-03-05T09:11:11.011Z,72.56
2019-03-05T09:12:10.975Z,72.56
2019-03-05T09:13:10.960Z,72.19
2019-03-05T09:14:10.939Z,72.47
2019-03-05T09:15:10.913Z,72.28
2019-03-05T09:16:10.904Z,72.47
2019-03-05T09:17:10.883Z,72.28
2019-03-05T09:18:10.866Z,72.00
2019-03-05T09:19:10.848Z,72.00
2019-03-05T09:20:10.828Z,72.09
2019-03-05T09:21:10.812Z,72.38
2019-03-05T09:22:10.782Z,72.56
2019-03-05T09:23:10.772Z,72.66
2019-03-05T09:24:10.790Z,72.47
2019-03-05T09:25:10.739Z,72.47
2019-03-05T09:26:10.753Z,72.19
2019-03-05T09:27:10.704Z,71.90
2019-03-05T09:28:10.681Z,71.71
2019-03-05T09:29:10.664Z,71.90
2019-03-05T09:30:10.646Z,72.19
2019-03-05T09:31:10.628Z,72.28
2019-03-05T09:32:10.608Z,72.28
2019-03-05T09:33:10.590Z,72.19
2019-03-05T09:34:10.573Z,71.52
2019-03-05T09:35:10.559Z,71.33
2019-03-05T09:36:10.536Z,71.43
2019-03-05T09:37:10.517Z,71.52
2019-03-05T09:38:10.500Z,71.52
2019-03-05T09:39:10.481Z,71.81
2019-03-05T09:40:10.467Z,71.90
2019-03-05T09:41:10.445Z,71.43
2019-03-05T09:42:10.445Z,71.33
2019-03-05T09:43:10.402Z,71.23
2019-03-05T09:44:10.409Z,71.52
2019-03-05T09:45:10.371Z,71.43
2019-03-05T09:46:10.352Z,71.04
2019-03-05T09:47:10.334Z,71.33
2019-03-05T09:48:10.314Z,71.33
2019-03-05T09:49:10.298Z,72.00
2019-03-05T09:50:10.278Z,72.00
2019-03-05T09:51:10.255Z,72.47
2019-03-05T09:52:10.241Z,72.38
2019-03-05T09:53:10.225Z,72.95
2019-03-05T09:54:10.206Z,73.29
2019-03-05T09:55:10.188Z,73.29
2019-03-05T09:56:10.179Z,73.00
2019-03-05T09:57:10.150Z,73.76
2019-03-05T09:58:10.131Z,74.24
2019-03-05T09:59:10.120Z,73.76
2019-03-05T10:00:10.095Z,73.67
2019-03-05T10:01:10.076Z,74.33
2019-03-05T10:02:10.097Z,74.33
2019-03-05T10:03:10.041Z,74.05
2019-03-05T10:04:10.022Z,74.81
2019-03-05T10:05:10.003Z,74.90
2019-03-05T10:06:09.983Z,75.57
2019-03-05T10:07:18.581Z,75.67
2019-03-05T10:08:09.948Z,76.42
2019-03-05T10:09:09.927Z,76.90
2019-03-05T10:10:09.907Z,77.05
2019-03-05T10:11:09.890Z,77.62
2019-03-05T10:12:09.866Z,78.19
2019-03-05T10:13:09.858Z,78.47
2019-03-05T10:14:09.834Z,79.04
2019-03-05T10:15:09.815Z,79.42
2019-03-05T10:16:09.816Z,79.10
2019-03-05T10:17:09.794Z,79.95
2019-03-05T10:18:12.993Z,79.95
2019-03-05T10:19:09.762Z,80.24
2019-03-05T10:20:09.719Z,80.80
2019-03-05T10:21:11.826Z,80.80
2019-03-05T10:22:09.680Z,80.90
2019-03-05T10:23:09.663Z,80.99
2019-03-05T10:24:10.682Z,81.47
2019-03-05T10:25:09.625Z,81.56
2019-03-05T10:26:10.573Z,81.75
2019-03-05T10:27:09.585Z,81.85
2019-03-05T10:28:09.566Z,81.94
2019-03-05T10:29:09.547Z,81.94
2019-03-05T10:30:09.528Z,82.70
2019-03-05T10:31:09.501Z,82.60
2019-03-05T10:32:09.500Z,83.17
2019-03-05T10:33:09.480Z,83.36
2019-03-05T10:34:09.455Z,83.65
2019-03-05T10:35:09.443Z,84.88
2019-03-05T10:36:09.411Z,85.26
2019-03-05T10:37:12.641Z,85.55
2019-03-05T10:38:09.372Z,85.45
2019-03-05T10:39:09.353Z,85.64
2019-03-05T10:40:09.334Z,85.45
2019-03-05T10:41:09.318Z,85.93
2019-03-05T10:42:09.293Z,85.45
2019-03-05T10:43:09.292Z,85.83
2019-03-05T10:44:09.258Z,85.93
2019-03-05T10:45:09.238Z,86.40
2019-03-05T10:46:09.224Z,86.78
2019-03-05T10:47:09.201Z,87.25
2019-03-05T10:48:09.181Z,87.06
2019-03-05T10:49:09.160Z,87.06
2019-03-05T10:50:15.190Z,87.35
2019-03-05T10:54:32.147Z,88.39
2019-03-05T10:57:45.253Z,88.16
2019-03-05T10:58:45.220Z,89.01
2019-03-05T11:00:39.466Z,88.92
2019-03-05T11:01:46.660Z,89.20
2019-03-05T11:02:39.427Z,88.92
2019-03-05T11:11:52.650Z,90.24
2019-03-05T11:12:59.773Z,90.34
2019-03-05T11:14:45.703Z,89.91
2019-03-05T11:15:45.464Z,90.05
2019-03-05T11:16:45.648Z,90.29
2019-03-05T11:17:45.459Z,89.96
2019-03-05T11:18:49.085Z,90.38
2019-03-05T11:19:55.816Z,90.53
2019-03-05T11:21:39.165Z,90.48
2019-03-05T11:22:39.180Z,90.67
2019-03-05T11:24:32.005Z,91.24
2019-03-05T11:25:32.024Z,91.14
2019-03-05T11:26:32.061Z,91.05
2019-03-05T11:27:31.972Z,91.05
2019-03-05T11:28:32.524Z,91.05
2019-03-05T11:29:31.860Z,91.14
2019-03-05T11:30:36.230Z,91.14
2019-03-05T11:32:24.730Z,91.71
2019-03-05T11:33:24.772Z,91.42
2019-03-05T11:35:17.800Z,91.90
2019-03-05T11:36:17.722Z,91.99
2019-03-05T11:38:11.129Z,91.90
2019-03-05T11:39:11.130Z,92.09
2019-03-05T11:41:03.914Z,91.99
2019-03-05T11:42:03.954Z,91.80
2019-03-05T11:43:57.793Z,91.90
2019-03-05T11:45:07.195Z,92.38
2019-03-05T11:46:50.562Z,92.66
2019-03-05T11:47:50.537Z,92.66
2019-03-05T11:49:43.418Z,92.76
2019-03-05T11:50:43.359Z,92.76
2019-03-05T11:52:36.260Z,93.13
2019-03-05T11:53:36.218Z,92.85
2019-03-05T11:55:29.287Z,93.13
2019-03-05T11:56:29.029Z,93.13
2019-03-05T11:57:29.000Z,93.41
2019-03-05T11:58:29.208Z,93.13
2019-03-05T11:59:28.982Z,93.80
2019-03-05T12:00:28.942Z,93.41
2019-03-05T12:01:28.920Z,93.80
2019-03-05T12:02:28.904Z,93.80
2019-03-05T12:03:29.033Z,93.80
2019-03-05T12:06:34.724Z,93.80
2019-03-05T12:07:34.687Z,93.89
2019-03-05T12:09:27.551Z,93.99
2019-03-05T12:10:27.519Z,94.08
2019-03-05T12:12:20.385Z,93.80
2019-03-05T12:13:20.363Z,94.46
2019-03-05T12:15:13.232Z,94.18
2019-03-05T12:16:13.230Z,94.37
2019-03-05T12:18:09.086Z,93.89
2019-03-05T12:20:34.777Z,93.70
2019-03-05T12:21:41.967Z,94.27
2019-03-05T12:23:27.597Z,93.89
2019-03-05T12:24:27.612Z,94.37
2019-03-05T12:26:20.453Z,94.18
2019-03-05T12:27:20.450Z,93.80
2019-03-05T12:29:13.366Z,94.08
2019-03-05T12:30:13.261Z,94.56
2019-03-05T12:32:06.207Z,94.74
2019-03-05T12:33:06.667Z,94.65
2019-03-05T12:34:59.019Z,94.84
2019-03-05T12:35:59.044Z,94.84
2019-03-05T12:37:51.883Z,94.93
2019-03-05T12:38:51.872Z,95.03
2019-03-05T12:40:44.830Z,94.46
2019-03-05T12:41:44.767Z,94.56
2019-03-05T12:43:38.523Z,94.56
2019-03-05T12:44:38.517Z,94.46
2019-03-05T12:45:38.494Z,94.74
2019-03-05T12:46:38.465Z,94.84
2019-03-05T12:47:38.444Z,95.03
2019-03-05T12:48:40.223Z,94.74
2019-03-05T12:49:38.827Z,95.03
2019-03-05T12:50:38.429Z,95.22
2019-03-05T12:51:38.355Z,94.84
2019-03-05T12:52:38.379Z,95.41
2019-03-05T12:53:38.492Z,95.69
2019-03-05T12:54:38.290Z,95.60
2019-03-05T12:55:38.295Z,95.50
2019-03-05T13:02:28.777Z,95.79
2019-03-05T13:05:14.045Z,95.69
2019-03-05T13:08:07.934Z,95.98
2019-03-05T13:17:56.670Z,96.22
2019-03-05T13:23:09.683Z,96.50
2019-03-05T13:24:16.691Z,96.45
2019-03-05T13:26:07.686Z,96.31
2019-03-05T13:27:11.572Z,96.31
2019-03-05T13:29:22.448Z,96.69
2019-03-05T13:30:33.670Z,96.41
2019-03-05T13:37:20.372Z,96.88
2019-03-05T13:40:51.222Z,96.88
2019-03-05T13:41:41.200Z,96.69
2019-03-05T13:44:15.937Z,96.64
2019-03-05T16:47:21.451Z,97.17
2019-03-05T16:48:29.554Z,97.17
2019-03-05T16:50:14.239Z,97.26
2019-03-05T16:51:14.266Z,97.36
2019-03-05T16:53:07.134Z,97.17
2019-03-05T16:54:07.049Z,97.17
2019-03-05T16:55:07.039Z,97.26
2019-03-05T16:56:07.013Z,97.17
2019-03-05T16:57:06.994Z,97.26
2019-03-05T16:58:06.978Z,97.55
2019-03-05T16:59:06.970Z,97.55
2019-03-05T17:00:08.561Z,97.55
2019-03-05T17:01:06.919Z,97.36
2019-03-05T17:02:07.767Z,97.17
2019-03-05T17:03:06.893Z,97.26
2019-03-05T17:04:06.862Z,97.45
2019-03-05T17:05:06.840Z,97.26
2019-03-05T17:06:06.837Z,97.55
2019-03-05T17:07:06.814Z,97.26
2019-03-05T17:08:06.790Z,97.26
2019-03-05T17:09:06.767Z,97.55
2019-03-05T17:10:06.750Z,97.02
2019-03-05T17:11:06.729Z,97.12
2019-03-05T17:12:06.713Z,97.31
2019-03-05T17:13:06.693Z,97.21
2019-03-05T17:14:06.672Z,97.21
2019-03-05T17:15:06.653Z,97.21
2019-03-05T17:16:06.634Z,97.12
2019-03-05T17:17:06.615Z,97.12
2019-03-05T17:18:06.596Z,97.21
2019-03-05T17:19:06.576Z,97.50
2019-03-05T17:20:06.559Z,97.50
2019-03-05T17:21:06.535Z,97.50
2019-03-05T17:22:06.521Z,97.12
2019-03-05T17:23:06.501Z,97.50
2019-03-05T17:24:06.485Z,97.50
2019-03-05T17:25:06.472Z,97.31
2019-03-05T17:26:06.443Z,97.31
2019-03-05T17:27:06.440Z,97.12